createdAt,value
2018-04-22T00:01:52.488Z,10.90
2018-04-22T00:04:19.241Z,10.47
2018-04-22T00:06:46.757Z,10.70
2018-04-22T00:09:13.531Z,9.67
2018-04-22T00:11:40.285Z,9.90
2018-04-22T00:14:07.724Z,9.23
2018-04-22T00:16:34.425Z,10.53
2018-04-22T00:19:01.108Z,10.20
2018-04-22T00:21:27.821Z,11.27
2018-04-22T00:23:54.519Z,11.17
2018-04-22T00:26:21.202Z,10.73
2018-04-22T00:28:47.892Z,10.93
2018-04-22T00:31:14.606Z,10.33
2018-04-22T00:33:42.048Z,10.10
2018-04-22T00:36:08.735Z,10.27
2018-04-22T00:38:35.435Z,9.90
2018-04-22T00:41:02.185Z,9.43
2018-04-22T00:43:29.719Z,10.30
2018-04-22T00:45:56.479Z,9.77
2018-04-22T00:48:23.944Z,9.53
2018-04-22T00:50:51.473Z,10.40
2018-04-22T00:53:18.278Z,10.87
2018-04-22T00:55:45.041Z,11.10
2018-04-22T00:58:11.828Z,10.87
2018-04-22T01:00:38.619Z,10.80
2018-04-22T01:03:05.424Z,11.23
2018-04-22T01:05:32.194Z,12.03
2018-04-22T01:07:58.964Z,11.07
2018-04-22T01:10:25.724Z,11.37
2018-04-22T01:12:53.212Z,10.90
2018-04-22T01:15:19.950Z,11.83
2018-04-22T01:17:46.688Z,11.00
2018-04-22T01:20:14.939Z,11.30
2018-04-22T01:22:42.409Z,11.77
2018-04-22T01:25:09.183Z,11.77
2018-04-22T01:27:35.928Z,10.97
2018-04-22T01:30:02.760Z,12.33
2018-04-22T01:32:29.502Z,11.70
2018-04-22T01:34:56.278Z,11.23
2018-04-22T01:37:23.075Z,11.20
2018-04-22T01:39:49.818Z,11.03
2018-04-22T01:42:17.262Z,10.27
2018-04-22T01:44:43.942Z,10.73
2018-04-22T01:47:10.624Z,10.77
2018-04-22T01:49:37.332Z,11.40
2018-04-22T01:52:04.039Z,11.10
2018-04-22T01:54:30.791Z,11.40
2018-04-22T01:56:57.492Z,11.13
2018-04-22T01:59:24.188Z,11.93
2018-04-22T02:01:50.871Z,11.90
2018-04-22T02:04:17.560Z,11.43
2018-04-22T02:06:44.275Z,12.80
2018-04-22T02:09:11.031Z,12.07
2018-04-22T02:11:37.800Z,12.23
2018-04-22T02:14:05.260Z,11.40
2018-04-22T02:16:32.739Z,12.33
2018-04-22T02:18:59.452Z,13.27
2018-04-22T02:21:26.912Z,12.53
2018-04-22T02:23:54.413Z,12.80
2018-04-22T02:26:21.161Z,13.03
2018-04-22T02:28:47.881Z,13.70
2018-04-22T02:31:14.636Z,18.13
2018-04-22T02:33:41.355Z,19.00
2018-04-22T02:36:08.095Z,18.00
2018-04-22T02:38:34.852Z,19.43
2018-04-22T02:41:01.643Z,18.93
2018-04-22T02:43:29.125Z,16.73
2018-04-22T02:45:56.027Z,14.53
2018-04-22T02:48:22.752Z,12.87
2018-04-22T02:50:49.497Z,13.60
2018-04-22T02:53:16.226Z,14.63
2018-04-22T02:55:42.953Z,15.47
2018-04-22T02:58:09.729Z,15.33
2018-04-22T03:00:37.215Z,14.43
2018-04-22T03:03:03.963Z,13.53
2018-04-22T03:05:30.675Z,13.30
2018-04-22T03:07:58.150Z,13.50
2018-04-22T03:10:24.883Z,13.60
2018-04-22T03:12:51.620Z,13.33
2018-04-22T03:15:18.335Z,14.87
2018-04-22T03:17:45.096Z,17.80
2018-04-22T03:20:11.815Z,17.33
2018-04-22T03:22:39.292Z,19.57
2018-04-22T03:25:06.740Z,17.10
2018-04-22T03:27:34.191Z,16.33
2018-04-22T03:30:01.644Z,13.97
2018-04-22T03:32:29.115Z,12.33
2018-04-22T03:34:55.838Z,13.40
2018-04-22T03:37:22.581Z,14.37
2018-04-22T03:39:50.075Z,18.37
2018-04-22T03:42:16.780Z,13.67
2018-04-22T03:44:44.256Z,13.17
2018-04-22T03:47:10.976Z,12.03
2018-04-22T03:49:38.439Z,12.33
2018-04-22T03:52:05.938Z,13.57
2018-04-22T03:54:32.654Z,12.30
2018-04-22T03:56:59.376Z,11.73
2018-04-22T03:59:26.824Z,11.17
2018-04-22T04:01:54.263Z,11.80
2018-04-22T04:04:20.984Z,9.97
2018-04-22T04:06:47.724Z,11.20
2018-04-22T04:09:14.464Z,12.40
2018-04-22T04:11:41.216Z,15.33
2018-04-22T04:14:07.991Z,12.90
2018-04-22T04:16:35.472Z,13.10
2018-04-22T04:19:20.362Z,11.37
2018-04-22T04:22:05.356Z,13.00
2018-04-22T04:24:56.163Z,10.83
2018-04-22T04:30:23.293Z,12.40
2018-04-22T04:32:50.043Z,12.80
2018-04-22T04:35:16.939Z,12.73
2018-04-22T04:37:44.956Z,12.20
2018-04-22T04:40:11.678Z,12.03
2018-04-22T04:42:38.375Z,12.57
2018-04-22T04:45:05.878Z,12.77
2018-04-22T04:47:32.579Z,11.47
2018-04-22T04:50:00.029Z,11.97
2018-04-22T04:52:27.484Z,11.17
2018-04-22T04:54:54.986Z,10.13
2018-04-22T04:57:21.683Z,9.53
2018-04-22T04:59:49.158Z,9.57
2018-04-22T05:02:15.871Z,9.53
2018-04-22T05:04:43.330Z,8.80
2018-04-22T05:07:10.796Z,8.73
2018-04-22T05:09:38.250Z,8.80
2018-04-22T05:12:05.666Z,8.77
2018-04-22T05:14:32.423Z,8.73
2018-04-22T05:16:59.841Z,8.43
2018-04-22T05:19:26.506Z,8.10
2018-04-22T05:21:53.183Z,8.50
2018-04-22T05:24:19.875Z,8.43
2018-04-22T05:26:46.556Z,8.40
2018-04-22T05:29:13.971Z,8.07
2018-04-22T05:31:40.646Z,7.93
2018-04-22T05:34:07.306Z,7.73
2018-04-22T05:36:34.005Z,7.93
2018-04-22T05:39:00.704Z,7.77
2018-04-22T05:41:27.363Z,7.70
2018-04-22T05:43:54.019Z,7.90
2018-04-22T05:46:20.712Z,7.83
2018-04-22T05:48:47.395Z,8.30
2018-04-22T05:51:14.066Z,7.57
2018-04-22T05:53:40.730Z,7.00
2018-04-22T05:56:07.449Z,7.67
2018-04-22T05:58:34.159Z,7.20
2018-04-22T06:01:01.619Z,8.60
2018-04-22T06:03:29.066Z,8.73
2018-04-22T06:05:56.491Z,7.90
2018-04-22T06:08:23.171Z,8.00
2018-04-22T06:10:50.646Z,8.67
2018-04-22T06:13:17.361Z,8.60
2018-04-22T06:15:44.899Z,8.37
2018-04-22T06:18:11.631Z,9.07
2018-04-22T06:20:38.369Z,9.37
2018-04-22T06:23:05.853Z,9.20
2018-04-22T06:25:33.326Z,9.27
2018-04-22T06:28:00.026Z,8.90
2018-04-22T06:30:26.707Z,9.47
2018-04-22T06:32:53.371Z,8.63
2018-04-22T06:35:20.061Z,8.83
2018-04-22T06:37:46.779Z,10.43
2018-04-22T06:40:13.486Z,9.60
2018-04-22T06:42:40.164Z,8.83
2018-04-22T06:45:06.827Z,9.40
2018-04-22T06:47:34.239Z,9.57
2018-04-22T06:50:00.932Z,9.40
2018-04-22T06:52:27.616Z,9.03
2018-04-22T06:54:54.291Z,9.70
2018-04-22T06:57:20.997Z,9.73
2018-04-22T06:59:47.679Z,9.13
2018-04-22T07:02:14.351Z,9.70
2018-04-22T07:04:41.024Z,9.70
2018-04-22T07:07:07.696Z,9.70
2018-04-22T07:09:34.383Z,9.80
2018-04-22T07:12:01.084Z,9.77
2018-04-22T07:14:27.781Z,10.50
2018-04-22T07:16:54.483Z,10.23
2018-04-22T07:19:21.198Z,10.37
2018-04-22T07:21:47.929Z,10.50
2018-04-22T07:24:14.637Z,9.80
2018-04-22T07:26:41.306Z,10.87
2018-04-22T07:29:07.984Z,12.23
2018-04-22T07:31:34.724Z,12.13
2018-04-22T07:34:01.428Z,11.80
2018-04-22T07:36:28.116Z,11.57
2018-04-22T07:38:55.088Z,10.70
2018-04-22T07:41:22.624Z,11.20
2018-04-22T07:43:49.383Z,10.80
2018-04-22T07:46:16.108Z,11.23
2018-04-22T07:48:42.938Z,10.77
2018-04-22T07:51:09.698Z,10.23
2018-04-22T07:53:37.195Z,9.90
2018-04-22T07:56:03.966Z,9.27
2018-04-22T07:58:30.711Z,8.40
2018-04-22T08:00:57.498Z,8.50
2018-04-22T08:03:25.131Z,8.90
2018-04-22T08:05:51.891Z,8.30
2018-04-22T08:08:18.619Z,8.20
2018-04-22T08:10:47.986Z,8.00
2018-04-22T08:13:14.776Z,8.20
2018-04-22T08:15:41.526Z,7.90
2018-04-22T08:18:08.263Z,8.23
2018-04-22T08:20:34.963Z,8.50
2018-04-22T08:23:01.659Z,7.87
2018-04-22T08:25:28.414Z,8.10
2018-04-22T08:27:55.132Z,7.53
2018-04-22T08:30:21.839Z,7.47
2018-04-22T08:32:49.266Z,7.43
2018-04-22T08:35:15.945Z,7.20
2018-04-22T08:37:42.659Z,7.07
2018-04-22T08:40:09.372Z,7.17
2018-04-22T08:42:36.084Z,6.87
2018-04-22T08:45:03.536Z,6.93
2018-04-22T08:47:30.218Z,7.30
2018-04-22T08:49:56.904Z,6.30
2018-04-22T08:52:23.571Z,5.80
2018-04-22T08:54:50.237Z,6.40
2018-04-22T08:57:16.911Z,6.00
2018-04-22T08:59:43.619Z,5.97
2018-04-22T09:02:10.304Z,5.90
2018-04-22T09:04:36.976Z,6.10
2018-04-22T09:07:03.694Z,5.63
2018-04-22T09:09:30.374Z,7.80
2018-04-22T09:11:57.102Z,6.30
2018-04-22T09:14:23.771Z,6.03
2018-04-22T09:16:51.217Z,6.80
2018-04-22T09:19:18.637Z,6.23
2018-04-22T09:21:45.329Z,6.00
2018-04-22T09:24:12.751Z,6.53
2018-04-22T09:26:39.476Z,6.90
2018-04-22T09:29:06.176Z,6.47
2018-04-22T09:31:32.890Z,6.40
2018-04-22T09:34:00.303Z,6.07
2018-04-22T09:36:27.008Z,6.17
2018-04-22T09:38:54.423Z,5.93
2018-04-22T09:41:21.170Z,5.93
2018-04-22T09:43:48.611Z,6.07
2018-04-22T09:46:15.350Z,5.83
2018-04-22T09:48:42.055Z,6.20
2018-04-22T09:51:08.818Z,5.50
2018-04-22T09:53:35.562Z,5.33
2018-04-22T09:56:02.281Z,5.80
2018-04-22T09:58:28.948Z,5.95
2018-04-22T10:01:00.556Z,5.60
2018-04-22T10:03:31.136Z,5.62
2018-04-22T10:06:01.699Z,5.23
2018-04-22T10:08:28.379Z,5.07
2018-04-22T10:10:55.089Z,6.37
2018-04-22T10:13:21.776Z,5.40
2018-04-22T10:15:48.438Z,5.40
2018-04-22T10:18:15.923Z,5.00
2018-04-22T10:20:42.615Z,5.62
2018-04-22T10:23:09.288Z,5.45
2018-04-22T10:25:35.968Z,5.37
2018-04-22T10:28:02.656Z,5.22
2018-04-22T10:30:29.416Z,5.05
2018-04-22T10:32:56.156Z,4.82
2018-04-22T10:35:22.916Z,5.35
2018-04-22T10:37:49.671Z,5.00
2018-04-22T10:40:16.436Z,5.12
2018-04-22T10:42:44.011Z,5.37
2018-04-22T10:45:10.768Z,5.03
2018-04-22T10:47:37.540Z,5.03
2018-04-22T10:50:04.311Z,5.05
2018-04-22T10:52:31.818Z,5.82
2018-04-22T10:54:58.660Z,5.20
2018-04-22T10:57:25.445Z,5.10
2018-04-22T10:59:52.277Z,5.37
2018-04-22T11:02:19.116Z,5.18
2018-04-22T11:04:45.816Z,5.20
2018-04-22T11:07:12.514Z,5.03
2018-04-22T11:09:39.270Z,5.12
2018-04-22T11:12:06.688Z,5.05
2018-04-22T11:14:33.383Z,4.87
2018-04-22T11:17:00.071Z,5.03
2018-04-22T11:19:26.738Z,6.10
2018-04-22T11:21:54.195Z,5.20
2018-04-22T11:24:21.633Z,5.45
2018-04-22T11:26:48.320Z,5.60
2018-04-22T11:29:15.004Z,5.40
2018-04-22T11:31:41.750Z,5.10
2018-04-22T11:34:08.428Z,5.53
2018-04-22T11:36:35.108Z,5.45
2018-04-22T11:39:01.798Z,5.50
2018-04-22T11:41:28.519Z,5.30
2018-04-22T11:43:56.000Z,5.07
2018-04-22T11:46:22.803Z,5.20
2018-04-22T11:48:50.303Z,5.28
2018-04-22T11:51:17.804Z,5.40
2018-04-22T11:53:44.491Z,5.43
2018-04-22T11:56:11.216Z,5.40
2018-04-22T11:58:37.951Z,5.80
2018-04-22T12:01:05.383Z,5.60
2018-04-22T12:03:32.103Z,5.68
2018-04-22T12:05:58.783Z,5.57
2018-04-22T12:08:26.216Z,5.30
2018-04-22T12:10:52.970Z,5.23
2018-04-22T12:13:20.432Z,5.78
2018-04-22T12:15:47.856Z,5.67
2018-04-22T12:18:14.551Z,5.40
2018-04-22T12:20:41.285Z,5.28
2018-04-22T12:23:08.711Z,5.20
2018-04-22T12:25:36.139Z,4.70
2018-04-22T12:28:02.854Z,4.93
2018-04-22T12:30:29.632Z,5.05
2018-04-22T12:32:56.303Z,4.78
2018-04-22T12:35:23.738Z,4.97
2018-04-22T12:37:50.512Z,6.00
2018-04-22T12:40:17.944Z,5.30
2018-04-22T12:42:46.420Z,6.03
2018-04-22T12:45:13.944Z,5.72
2018-04-22T12:47:40.726Z,5.30
2018-04-22T12:50:08.299Z,5.30
2018-04-22T12:52:35.103Z,4.93
2018-04-22T12:55:01.786Z,5.40
2018-04-22T12:57:29.244Z,4.60
2018-04-22T12:59:55.908Z,4.78
2018-04-22T13:02:22.631Z,5.00
2018-04-22T13:04:49.376Z,4.62
2018-04-22T13:07:16.116Z,4.30
2018-04-22T13:09:42.811Z,4.43
2018-04-22T13:12:10.288Z,5.10
2018-04-22T13:14:36.989Z,4.80
2018-04-22T13:17:03.728Z,4.78
2018-04-22T13:19:30.437Z,4.53
2018-04-22T13:21:57.103Z,4.62
2018-04-22T13:24:23.784Z,4.55
2018-04-22T13:26:50.459Z,4.25
2018-04-22T13:29:17.130Z,4.93
2018-04-22T13:31:43.873Z,4.72
2018-04-22T13:34:10.526Z,4.78
2018-04-22T13:36:37.976Z,4.40
2018-04-22T13:39:05.511Z,4.60
2018-04-22T13:41:32.223Z,4.85
2018-04-22T13:43:58.903Z,4.70
2018-04-22T13:46:25.609Z,4.40
2018-04-22T13:48:52.326Z,4.43
2018-04-22T13:51:19.035Z,4.12
2018-04-22T13:53:46.456Z,4.25
2018-04-22T13:56:13.921Z,4.25
2018-04-22T13:58:40.596Z,4.10
2018-04-22T14:01:07.308Z,3.75
2018-04-22T14:03:33.998Z,4.37
2018-04-22T14:06:00.743Z,3.90
2018-04-22T14:08:27.431Z,3.83
2018-04-22T14:10:54.856Z,4.07
2018-04-22T14:13:21.546Z,3.80
2018-04-22T14:15:48.267Z,3.70
2018-04-22T14:18:15.687Z,3.58
2018-04-22T14:20:42.362Z,3.00
2018-04-22T14:23:09.072Z,3.58
2018-04-22T14:25:35.754Z,3.75
2018-04-22T14:28:02.466Z,2.97
2018-04-22T14:30:29.134Z,2.95
2018-04-22T14:32:55.804Z,2.65
2018-04-22T14:35:22.472Z,2.70
2018-04-22T14:37:49.146Z,3.05
2018-04-22T14:40:15.864Z,3.00
2018-04-22T14:42:43.298Z,3.22
2018-04-22T14:45:28.377Z,2.80
2018-04-22T14:47:55.772Z,2.90
2018-04-22T14:50:22.535Z,3.03
2018-04-22T14:52:49.206Z,2.80
2018-04-22T14:55:15.904Z,2.90
2018-04-22T14:57:42.623Z,3.05
2018-04-22T15:00:10.119Z,2.80
2018-04-22T15:02:36.999Z,3.00
2018-04-22T15:05:04.472Z,2.90
2018-04-22T15:07:31.152Z,3.08
2018-04-22T15:09:57.816Z,2.72
2018-04-22T15:12:24.510Z,3.12
2018-04-22T15:14:51.203Z,2.70
2018-04-22T15:17:17.917Z,2.90
2018-04-22T15:19:44.595Z,3.15
2018-04-22T15:22:12.030Z,3.08
2018-04-22T15:24:38.739Z,3.35
2018-04-22T15:27:05.436Z,2.80
2018-04-22T15:29:32.858Z,3.33
2018-04-22T15:31:59.522Z,3.40
2018-04-22T15:34:26.944Z,3.08
2018-04-22T15:36:53.641Z,3.40
2018-04-22T15:39:20.335Z,3.12
2018-04-22T15:41:47.036Z,3.05
2018-04-22T15:44:13.769Z,3.20
2018-04-22T15:46:40.449Z,3.35
2018-04-22T15:49:07.121Z,3.10
2018-04-22T15:51:33.822Z,3.25
2018-04-22T15:54:00.524Z,3.37
2018-04-22T15:56:27.259Z,3.37
2018-04-22T15:58:53.977Z,3.42
2018-04-22T16:01:20.771Z,3.45
2018-04-22T16:03:47.539Z,3.70
2018-04-22T16:06:15.044Z,4.47
2018-04-22T16:08:41.786Z,4.90
2018-04-22T16:11:08.546Z,4.55
2018-04-22T16:13:35.279Z,3.80
2018-04-22T16:16:02.030Z,6.70
2018-04-22T16:18:28.775Z,4.03
2018-04-22T16:20:55.528Z,3.60
2018-04-22T16:23:22.254Z,4.18
2018-04-22T16:25:49.035Z,3.45
2018-04-22T16:28:15.805Z,3.37
2018-04-22T16:30:43.566Z,3.80
2018-04-22T16:33:10.375Z,3.80
2018-04-22T16:35:37.160Z,3.90
2018-04-22T16:38:03.940Z,4.20
2018-04-22T16:40:31.483Z,3.67
2018-04-22T16:42:58.222Z,4.07
2018-04-22T16:45:25.051Z,4.00
2018-04-22T16:47:51.815Z,4.20
2018-04-22T16:50:19.326Z,4.33
2018-04-22T16:52:46.139Z,4.30
2018-04-22T16:55:12.896Z,4.27
2018-04-22T16:57:39.637Z,4.40
2018-04-22T17:00:07.348Z,4.60
2018-04-22T17:02:34.133Z,4.70
2018-04-22T17:05:00.868Z,4.50
2018-04-22T17:07:27.640Z,4.60
2018-04-22T17:09:54.377Z,4.30
2018-04-22T17:12:21.146Z,4.93
2018-04-22T17:14:47.908Z,4.30
2018-04-22T17:17:15.415Z,4.70
2018-04-22T17:19:42.198Z,4.70
2018-04-22T17:22:09.672Z,4.67
2018-04-22T17:24:36.441Z,4.33
2018-04-22T17:27:03.246Z,4.10
2018-04-22T17:29:30.731Z,4.40
2018-04-22T17:31:57.471Z,4.63
2018-04-22T17:34:24.261Z,4.30
2018-04-22T17:36:51.035Z,4.00
2018-04-22T17:39:17.788Z,4.57
2018-04-22T17:41:44.638Z,4.40
2018-04-22T17:44:11.438Z,4.33
2018-04-22T17:46:38.129Z,4.53
2018-04-22T17:49:04.863Z,4.70
2018-04-22T17:51:31.639Z,4.93
2018-04-22T17:53:58.422Z,4.70
2018-04-22T17:56:25.260Z,4.30
2018-04-22T17:58:51.969Z,4.20
2018-04-22T18:01:18.696Z,4.70
2018-04-22T18:03:45.401Z,4.47
2018-04-22T18:06:12.106Z,4.60
2018-04-22T18:08:39.564Z,4.70
2018-04-22T18:11:07.048Z,4.57
2018-04-22T18:13:33.807Z,4.40
2018-04-22T18:16:00.570Z,4.83
2018-04-22T18:18:27.312Z,4.37
2018-04-22T18:20:54.004Z,4.47
2018-04-22T18:23:20.694Z,4.90
2018-04-22T18:25:47.414Z,4.43
2018-04-22T18:28:14.094Z,4.33
2018-04-22T18:30:41.520Z,4.57
2018-04-22T18:33:08.247Z,5.00
2018-04-22T18:35:34.902Z,4.80
2018-04-22T18:38:01.575Z,4.73
2018-04-22T18:40:28.288Z,4.53
2018-04-22T18:42:55.023Z,4.70
2018-04-22T18:45:21.723Z,4.50
2018-04-22T18:47:48.395Z,4.30
2018-04-22T18:50:15.114Z,4.47
2018-04-22T18:52:41.788Z,4.80
2018-04-22T18:55:09.241Z,4.43
2018-04-22T18:57:35.983Z,4.70
2018-04-22T19:00:04.467Z,4.60
2018-04-22T19:02:31.938Z,5.23
2018-04-22T19:04:59.369Z,5.80
2018-04-22T19:07:26.824Z,5.43
2018-04-22T19:09:53.486Z,5.30
2018-04-22T19:12:20.925Z,5.20
2018-04-22T19:14:48.358Z,5.50
2018-04-22T19:17:15.104Z,5.10
2018-04-22T19:19:41.836Z,5.07
2018-04-22T19:22:08.556Z,4.93
2018-04-22T19:24:35.248Z,4.80
2018-04-22T19:27:02.680Z,4.50
2018-04-22T19:29:29.349Z,5.17
2018-04-22T19:31:56.926Z,4.63
2018-04-22T19:34:23.635Z,5.03
2018-04-22T19:36:50.332Z,4.60
2018-04-22T19:39:17.003Z,4.70
2018-04-22T19:41:44.643Z,4.63
2018-04-22T19:44:11.327Z,4.63
2018-04-22T19:46:38.017Z,5.13
2018-04-22T19:49:04.713Z,5.17
2018-04-22T19:51:31.624Z,5.40
2018-04-22T19:53:58.506Z,5.37
2018-04-22T19:56:25.266Z,5.43
2018-04-22T19:58:52.046Z,5.10
2018-04-22T20:01:19.566Z,4.90
2018-04-22T20:03:46.309Z,5.23
2018-04-22T20:06:13.057Z,4.77
2018-04-22T20:08:39.747Z,5.23
2018-04-22T20:11:06.482Z,5.10
2018-04-22T20:13:33.179Z,5.70
2018-04-22T20:15:59.900Z,5.37
2018-04-22T20:18:26.603Z,4.80
2018-04-22T20:20:53.283Z,5.63
2018-04-22T20:23:20.057Z,5.27
2018-04-22T20:25:47.521Z,6.20
2018-04-22T20:28:14.956Z,5.43
2018-04-22T20:30:42.328Z,5.57
2018-04-22T20:33:09.756Z,5.63
2018-04-22T20:35:36.444Z,6.43
2018-04-22T20:38:03.151Z,6.60
2018-04-22T20:40:29.840Z,6.03
2018-04-22T20:42:56.561Z,6.00
2018-04-22T20:45:23.248Z,5.50
2018-04-22T20:47:49.923Z,5.80
2018-04-22T20:50:17.374Z,5.73
2018-04-22T20:52:44.850Z,5.80
2018-04-22T20:55:11.528Z,5.50
2018-04-22T20:57:38.230Z,5.87
2018-04-22T21:00:04.928Z,5.50
2018-04-22T21:02:31.608Z,6.13
2018-04-22T21:04:58.301Z,5.93
2018-04-22T21:07:25.015Z,6.17
2018-04-22T21:09:52.668Z,6.33
2018-04-22T21:12:19.460Z,6.20
2018-04-22T21:14:46.995Z,6.43
2018-04-22T21:17:13.696Z,6.10
2018-04-22T21:19:41.138Z,6.63
2018-04-22T21:22:07.811Z,6.17
2018-04-22T21:24:34.511Z,5.73
2018-04-22T21:27:01.199Z,5.87
2018-04-22T21:29:27.919Z,6.43
2018-04-22T21:31:54.588Z,6.13
2018-04-22T21:34:21.252Z,6.63
2018-04-22T21:36:47.918Z,6.90
2018-04-22T21:39:14.584Z,6.73
2018-04-22T21:41:41.291Z,6.40
2018-04-22T21:44:07.992Z,6.40
2018-04-22T21:46:35.472Z,6.47
2018-04-22T21:49:02.185Z,6.60
2018-04-22T21:51:28.957Z,6.43
2018-04-22T21:53:55.645Z,6.00
2018-04-22T21:56:22.316Z,6.10
2018-04-22T21:58:49.821Z,6.10
2018-04-22T22:01:16.556Z,6.23
2018-04-22T22:03:43.239Z,6.50
2018-04-22T22:06:09.976Z,6.70
2018-04-22T22:08:36.656Z,6.90
2018-04-22T22:11:03.386Z,6.67
2018-04-22T22:13:30.071Z,7.27
2018-04-22T22:15:56.763Z,7.30
2018-04-22T22:18:23.424Z,7.27
2018-04-22T22:20:50.123Z,7.40
2018-04-22T22:23:17.579Z,7.57
2018-04-22T22:25:45.017Z,7.80
2018-04-22T22:28:11.686Z,7.40
2018-04-22T22:30:38.358Z,7.10
2018-04-22T22:33:05.046Z,7.40
2018-04-22T22:35:32.466Z,7.23
2018-04-22T22:37:59.149Z,6.90
2018-04-22T22:40:26.584Z,7.10
2018-04-22T22:42:53.334Z,7.10
2018-04-22T22:45:20.781Z,7.33
2018-04-22T22:47:47.463Z,7.03
2018-04-22T22:50:14.156Z,6.40
2018-04-22T22:52:40.856Z,6.97
2018-04-22T22:55:07.543Z,6.90
2018-04-22T22:57:34.283Z,7.27
2018-04-22T23:00:01.766Z,7.87
2018-04-22T23:02:28.486Z,7.53
2018-04-22T23:04:55.923Z,7.83
2018-04-22T23:07:22.603Z,7.80
2018-04-22T23:09:49.306Z,8.40
2018-04-22T23:12:15.971Z,7.73
2018-04-22T23:14:42.651Z,7.83
2018-04-22T23:17:09.346Z,7.93
2018-04-22T23:19:36.036Z,8.10
2018-04-22T23:22:02.747Z,8.17
2018-04-22T23:24:29.406Z,7.73
2018-04-22T23:26:56.083Z,7.87
2018-04-22T23:29:23.512Z,7.57
2018-04-22T23:31:50.198Z,7.47
2018-04-22T23:34:16.878Z,8.20
2018-04-22T23:36:43.545Z,8.17
2018-04-22T23:39:10.230Z,8.07
2018-04-22T23:41:36.927Z,7.80
2018-04-22T23:44:03.635Z,7.47
2018-04-22T23:46:30.304Z,8.33
2018-04-22T23:48:57.738Z,7.57
2018-04-22T23:51:24.411Z,8.27
2018-04-22T23:53:51.088Z,8.00
2018-04-22T23:56:17.798Z,7.63
2018-04-22T23:58:44.478Z,8.17
